sensor_id;sensor_type;location;lat;lon;timestamp;P1;durP1;ratioP1;P2;durP2;ratioP2
52618;SDS011;38513;53.234;6.568;2023-04-03T00:00:33;7.47;;;1.98;;
52618;SDS011;38513;53.234;6.568;2023-04-03T00:02:59;5.68;;;1.40;;
52618;SDS011;38513;53.234;6.568;2023-04-03T00:05:26;5.22;;;1.40;;
52618;SDS011;38513;53.234;6.568;2023-04-03T00:07:52;5.97;;;1.20;;
52618;SDS011;38513;53.234;6.568;2023-04-03T00:10:21;4.93;;;1.40;;
52618;SDS011;38513;53.234;6.568;2023-04-03T00:12:47;5.10;;;1.40;;
52618;SDS011;38513;53.234;6.568;2023-04-03T00:15:14;6.25;;;1.27;;
52618;SDS011;38513;53.234;6.568;2023-04-03T00:17:40;5.43;;;1.20;;
52618;SDS011;38513;53.234;6.568;2023-04-03T00:20:07;6.47;;;1.30;;
52618;SDS011;38513;53.234;6.568;2023-04-03T00:22:39;5.05;;;1.30;;
52618;SDS011;38513;53.234;6.568;2023-04-03T00:25:05;4.45;;;1.10;;
52618;SDS011;38513;53.234;6.568;2023-04-03T00:27:31;5.47;;;1.23;;
52618;SDS011;38513;53.234;6.568;2023-04-03T00:29:58;5.32;;;1.10;;
52618;SDS011;38513;53.234;6.568;2023-04-03T00:32:24;5.80;;;1.40;;
52618;SDS011;38513;53.234;6.568;2023-04-03T00:34:50;4.80;;;1.30;;
52618;SDS011;38513;53.234;6.568;2023-04-03T00:37:17;5.88;;;1.50;;
52618;SDS011;38513;53.234;6.568;2023-04-03T00:39:43;6.20;;;1.20;;
52618;SDS011;38513;53.234;6.568;2023-04-03T00:42:09;7.72;;;1.60;;
52618;SDS011;38513;53.234;6.568;2023-04-03T00:47:06;7.03;;;1.92;;
52618;SDS011;38513;53.234;6.568;2023-04-03T00:49:36;4.35;;;1.20;;
52618;SDS011;38513;53.234;6.568;2023-04-03T00:52:02;4.38;;;1.15;;
52618;SDS011;38513;53.234;6.568;2023-04-03T00:54:28;5.22;;;1.45;;
52618;SDS011;38513;53.234;6.568;2023-04-03T00:56:55;5.15;;;1.50;;
52618;SDS011;38513;53.234;6.568;2023-04-03T00:59:23;5.20;;;1.60;;
52618;SDS011;38513;53.234;6.568;2023-04-03T01:01:52;6.43;;;1.60;;
52618;SDS011;38513;53.234;6.568;2023-04-03T01:06:56;5.35;;;1.45;;
52618;SDS011;38513;53.234;6.568;2023-04-03T01:09:23;6.18;;;1.45;;
52618;SDS011;38513;53.234;6.568;2023-04-03T01:11:50;4.78;;;1.55;;
52618;SDS011;38513;53.234;6.568;2023-04-03T01:14:16;6.60;;;1.70;;
52618;SDS011;38513;53.234;6.568;2023-04-03T01:16:52;7.22;;;1.77;;
52618;SDS011;38513;53.234;6.568;2023-04-03T01:19:20;5.82;;;1.70;;
52618;SDS011;38513;53.234;6.568;2023-04-03T01:26:46;6.10;;;1.50;;
52618;SDS011;38513;53.234;6.568;2023-04-03T01:29:14;8.48;;;1.73;;
52618;SDS011;38513;53.234;6.568;2023-04-03T01:31:45;6.88;;;1.60;;
52618;SDS011;38513;53.234;6.568;2023-04-03T01:34:12;6.28;;;1.70;;
52618;SDS011;38513;53.234;6.568;2023-04-03T01:36:38;7.85;;;1.85;;
52618;SDS011;38513;53.234;6.568;2023-04-03T01:39:05;8.73;;;2.03;;
52618;SDS011;38513;53.234;6.568;2023-04-03T01:41:31;7.22;;;1.70;;
52618;SDS011;38513;53.234;6.568;2023-04-03T01:43:57;7.75;;;1.85;;
52618;SDS011;38513;53.234;6.568;2023-04-03T01:46:24;6.53;;;1.60;;
52618;SDS011;38513;53.234;6.568;2023-04-03T01:48:50;7.85;;;1.90;;
52618;SDS011;38513;53.234;6.568;2023-04-03T01:51:16;8.23;;;2.00;;
52618;SDS011;38513;53.234;6.568;2023-04-03T01:53:42;7.07;;;1.70;;
52618;SDS011;38513;53.234;6.568;2023-04-03T01:56:09;10.38;;;1.83;;
52618;SDS011;38513;53.234;6.568;2023-04-03T01:58:38;8.00;;;1.77;;
52618;SDS011;38513;53.234;6.568;2023-04-03T02:01:04;8.10;;;2.00;;
52618;SDS011;38513;53.234;6.568;2023-04-03T02:03:33;7.80;;;1.50;;
52618;SDS011;38513;53.234;6.568;2023-04-03T02:06:03;7.90;;;2.20;;
52618;SDS011;38513;53.234;6.568;2023-04-03T02:08:30;7.93;;;1.95;;
52618;SDS011;38513;53.234;6.568;2023-04-03T02:10:56;7.15;;;2.00;;
52618;SDS011;38513;53.234;6.568;2023-04-03T02:13:22;7.93;;;1.75;;
52618;SDS011;38513;53.234;6.568;2023-04-03T02:15:52;10.20;;;2.05;;
52618;SDS011;38513;53.234;6.568;2023-04-03T02:18:20;7.63;;;1.80;;
52618;SDS011;38513;53.234;6.568;2023-04-03T02:20:47;7.38;;;2.10;;
52618;SDS011;38513;53.234;6.568;2023-04-03T02:23:15;7.45;;;1.85;;
52618;SDS011;38513;53.234;6.568;2023-04-03T02:25:42;7.43;;;2.20;;
52618;SDS011;38513;53.234;6.568;2023-04-03T02:28:08;9.63;;;2.08;;
52618;SDS011;38513;53.234;6.568;2023-04-03T02:30:34;7.85;;;1.95;;
52618;SDS011;38513;53.234;6.568;2023-04-03T02:33:03;7.13;;;1.80;;
52618;SDS011;38513;53.234;6.568;2023-04-03T02:35:29;9.55;;;2.20;;
52618;SDS011;38513;53.234;6.568;2023-04-03T02:37:55;6.57;;;1.80;;
52618;SDS011;38513;53.234;6.568;2023-04-03T02:40:21;7.55;;;1.60;;
52618;SDS011;38513;53.234;6.568;2023-04-03T02:42:48;7.43;;;1.95;;
52618;SDS011;38513;53.234;6.568;2023-04-03T02:45:17;8.07;;;2.03;;
52618;SDS011;38513;53.234;6.568;2023-04-03T02:47:43;8.15;;;2.00;;
52618;SDS011;38513;53.234;6.568;2023-04-03T02:50:09;7.85;;;2.17;;
52618;SDS011;38513;53.234;6.568;2023-04-03T02:52:38;7.07;;;2.00;;
52618;SDS011;38513;53.234;6.568;2023-04-03T02:55:05;8.30;;;2.00;;
52618;SDS011;38513;53.234;6.568;2023-04-03T02:57:34;6.80;;;1.80;;
52618;SDS011;38513;53.234;6.568;2023-04-03T03:00:00;9.38;;;2.00;;
52618;SDS011;38513;53.234;6.568;2023-04-03T03:02:27;7.55;;;1.90;;
52618;SDS011;38513;53.234;6.568;2023-04-03T03:04:53;8.48;;;2.17;;
52618;SDS011;38513;53.234;6.568;2023-04-03T03:07:23;9.43;;;2.42;;
52618;SDS011;38513;53.234;6.568;2023-04-03T03:09:49;9.52;;;2.20;;
52618;SDS011;38513;53.234;6.568;2023-04-03T03:12:15;7.47;;;2.00;;
52618;SDS011;38513;53.234;6.568;2023-04-03T03:14:46;8.60;;;2.08;;
52618;SDS011;38513;53.234;6.568;2023-04-03T03:17:12;8.18;;;2.08;;
52618;SDS011;38513;53.234;6.568;2023-04-03T03:19:42;10.25;;;2.25;;
52618;SDS011;38513;53.234;6.568;2023-04-03T03:22:08;10.60;;;2.40;;
52618;SDS011;38513;53.234;6.568;2023-04-03T03:24:34;8.82;;;2.10;;
52618;SDS011;38513;53.234;6.568;2023-04-03T03:27:01;7.00;;;2.20;;
52618;SDS011;38513;53.234;6.568;2023-04-03T03:29:27;9.00;;;2.23;;
52618;SDS011;38513;53.234;6.568;2023-04-03T03:31:54;9.27;;;2.42;;
52618;SDS011;38513;53.234;6.568;2023-04-03T03:34:23;8.85;;;2.70;;
52618;SDS011;38513;53.234;6.568;2023-04-03T03:36:49;12.23;;;2.30;;
52618;SDS011;38513;53.234;6.568;2023-04-03T03:39:15;7.35;;;2.15;;
52618;SDS011;38513;53.234;6.568;2023-04-03T03:41:42;9.80;;;2.47;;
52618;SDS011;38513;53.234;6.568;2023-04-03T03:44:08;8.00;;;2.33;;
52618;SDS011;38513;53.234;6.568;2023-04-03T03:46:34;10.35;;;2.75;;
52618;SDS011;38513;53.234;6.568;2023-04-03T03:49:00;9.38;;;2.50;;
52618;SDS011;38513;53.234;6.568;2023-04-03T03:51:26;10.30;;;2.60;;
52618;SDS011;38513;53.234;6.568;2023-04-03T03:53:52;8.50;;;2.30;;
52618;SDS011;38513;53.234;6.568;2023-04-03T03:56:19;10.38;;;2.58;;
52618;SDS011;38513;53.234;6.568;2023-04-03T03:58:45;7.95;;;2.60;;
52618;SDS011;38513;53.234;6.568;2023-04-03T04:01:12;9.98;;;2.50;;
52618;SDS011;38513;53.234;6.568;2023-04-03T04:03:38;10.52;;;2.78;;
52618;SDS011;38513;53.234;6.568;2023-04-03T04:06:04;11.32;;;2.53;;
52618;SDS011;38513;53.234;6.568;2023-04-03T04:08:31;9.18;;;2.72;;
52618;SDS011;38513;53.234;6.568;2023-04-03T04:10:57;8.95;;;2.53;;
52618;SDS011;38513;53.234;6.568;2023-04-03T04:13:24;11.23;;;2.77;;
52618;SDS011;38513;53.234;6.568;2023-04-03T04:15:50;7.90;;;2.73;;
52618;SDS011;38513;53.234;6.568;2023-04-03T04:18:16;10.57;;;3.30;;
52618;SDS011;38513;53.234;6.568;2023-04-03T04:20:44;9.48;;;3.13;;
52618;SDS011;38513;53.234;6.568;2023-04-03T04:23:10;10.98;;;2.85;;
52618;SDS011;38513;53.234;6.568;2023-04-03T04:25:37;9.25;;;2.90;;
52618;SDS011;38513;53.234;6.568;2023-04-03T04:28:03;10.93;;;3.25;;
52618;SDS011;38513;53.234;6.568;2023-04-03T04:30:29;10.32;;;3.00;;
52618;SDS011;38513;53.234;6.568;2023-04-03T04:32:55;10.07;;;3.25;;
52618;SDS011;38513;53.234;6.568;2023-04-03T04:35:22;9.68;;;3.20;;
52618;SDS011;38513;53.234;6.568;2023-04-03T04:37:51;10.55;;;3.50;;
52618;SDS011;38513;53.234;6.568;2023-04-03T04:40:17;12.55;;;3.47;;
52618;SDS011;38513;53.234;6.568;2023-04-03T04:42:43;11.82;;;3.53;;
52618;SDS011;38513;53.234;6.568;2023-04-03T04:45:10;13.95;;;4.03;;
52618;SDS011;38513;53.234;6.568;2023-04-03T04:47:36;9.82;;;3.92;;
52618;SDS011;38513;53.234;6.568;2023-04-03T04:50:02;14.13;;;3.80;;
52618;SDS011;38513;53.234;6.568;2023-04-03T04:52:29;9.80;;;3.35;;
52618;SDS011;38513;53.234;6.568;2023-04-03T04:54:55;12.60;;;3.75;;
52618;SDS011;38513;53.234;6.568;2023-04-03T04:57:21;10.43;;;3.33;;
52618;SDS011;38513;53.234;6.568;2023-04-03T04:59:49;13.90;;;3.63;;
52618;SDS011;38513;53.234;6.568;2023-04-03T05:02:19;10.77;;;3.63;;
52618;SDS011;38513;53.234;6.568;2023-04-03T05:04:48;14.18;;;3.85;;
52618;SDS011;38513;53.234;6.568;2023-04-03T05:07:17;11.17;;;3.67;;
52618;SDS011;38513;53.234;6.568;2023-04-03T05:09:43;10.02;;;3.80;;
52618;SDS011;38513;53.234;6.568;2023-04-03T05:12:09;11.82;;;3.90;;
52618;SDS011;38513;53.234;6.568;2023-04-03T05:14:36;12.63;;;3.92;;
52618;SDS011;38513;53.234;6.568;2023-04-03T05:17:03;11.63;;;3.93;;
52618;SDS011;38513;53.234;6.568;2023-04-03T05:19:30;14.90;;;4.03;;
52618;SDS011;38513;53.234;6.568;2023-04-03T05:22:03;11.20;;;3.60;;
52618;SDS011;38513;53.234;6.568;2023-04-03T05:24:46;12.88;;;3.75;;
52618;SDS011;38513;53.234;6.568;2023-04-03T05:27:29;12.10;;;4.00;;
52618;SDS011;38513;53.234;6.568;2023-04-03T05:30:09;10.60;;;3.47;;
52618;SDS011;38513;53.234;6.568;2023-04-03T05:32:38;13.38;;;3.53;;
52618;SDS011;38513;53.234;6.568;2023-04-03T05:35:05;10.63;;;3.70;;
52618;SDS011;38513;53.234;6.568;2023-04-03T05:37:32;11.02;;;3.85;;
52618;SDS011;38513;53.234;6.568;2023-04-03T05:39:59;11.88;;;3.85;;
52618;SDS011;38513;53.234;6.568;2023-04-03T05:42:25;10.63;;;3.60;;
52618;SDS011;38513;53.234;6.568;2023-04-03T05:44:53;11.33;;;3.70;;
52618;SDS011;38513;53.234;6.568;2023-04-03T05:47:22;11.75;;;3.90;;
52618;SDS011;38513;53.234;6.568;2023-04-03T05:50:01;9.43;;;3.60;;
52618;SDS011;38513;53.234;6.568;2023-04-03T05:52:28;10.05;;;3.20;;
52618;SDS011;38513;53.234;6.568;2023-04-03T05:54:55;10.55;;;3.50;;
52618;SDS011;38513;53.234;6.568;2023-04-03T05:57:24;10.68;;;3.53;;
52618;SDS011;38513;53.234;6.568;2023-04-03T05:59:53;12.63;;;3.45;;
52618;SDS011;38513;53.234;6.568;2023-04-03T06:02:22;13.90;;;3.78;;
52618;SDS011;38513;53.234;6.568;2023-04-03T06:04:52;11.57;;;3.42;;
52618;SDS011;38513;53.234;6.568;2023-04-03T06:07:22;9.43;;;3.75;;
52618;SDS011;38513;53.234;6.568;2023-04-03T06:09:52;10.52;;;3.50;;
52618;SDS011;38513;53.234;6.568;2023-04-03T06:12:23;9.57;;;3.40;;
52618;SDS011;38513;53.234;6.568;2023-04-03T06:14:50;12.60;;;3.50;;
52618;SDS011;38513;53.234;6.568;2023-04-03T06:17:23;11.57;;;3.80;;
52618;SDS011;38513;53.234;6.568;2023-04-03T06:19:58;13.63;;;3.75;;
52618;SDS011;38513;53.234;6.568;2023-04-03T06:22:31;12.60;;;3.90;;
52618;SDS011;38513;53.234;6.568;2023-04-03T06:25:01;12.05;;;3.88;;
52618;SDS011;38513;53.234;6.568;2023-04-03T06:27:27;10.10;;;3.60;;
52618;SDS011;38513;53.234;6.568;2023-04-03T06:29:54;12.33;;;3.97;;
52618;SDS011;38513;53.234;6.568;2023-04-03T06:32:23;11.13;;;3.60;;
52618;SDS011;38513;53.234;6.568;2023-04-03T06:34:55;11.13;;;3.05;;
52618;SDS011;38513;53.234;6.568;2023-04-03T06:37:31;11.27;;;3.45;;
52618;SDS011;38513;53.234;6.568;2023-04-03T06:39:58;10.35;;;3.47;;
52618;SDS011;38513;53.234;6.568;2023-04-03T06:42:28;11.68;;;3.80;;
52618;SDS011;38513;53.234;6.568;2023-04-03T06:44:54;10.90;;;3.93;;
52618;SDS011;38513;53.234;6.568;2023-04-03T06:47:23;11.20;;;3.65;;
52618;SDS011;38513;53.234;6.568;2023-04-03T06:49:52;12.75;;;3.90;;
52618;SDS011;38513;53.234;6.568;2023-04-03T06:52:24;10.98;;;3.70;;
52618;SDS011;38513;53.234;6.568;2023-04-03T06:54:50;14.32;;;3.58;;
52618;SDS011;38513;53.234;6.568;2023-04-03T06:57:22;12.25;;;3.88;;
52618;SDS011;38513;53.234;6.568;2023-04-03T06:59:51;10.50;;;3.55;;
52618;SDS011;38513;53.234;6.568;2023-04-03T07:02:18;12.80;;;3.88;;
52618;SDS011;38513;53.234;6.568;2023-04-03T07:04:45;10.32;;;3.50;;
52618;SDS011;38513;53.234;6.568;2023-04-03T07:07:23;11.40;;;3.97;;
52618;SDS011;38513;53.234;6.568;2023-04-03T07:09:49;12.25;;;3.85;;
52618;SDS011;38513;53.234;6.568;2023-04-03T07:12:16;11.52;;;3.83;;
52618;SDS011;38513;53.234;6.568;2023-04-03T07:14:42;10.65;;;3.85;;
52618;SDS011;38513;53.234;6.568;2023-04-03T07:17:08;11.65;;;3.80;;
52618;SDS011;38513;53.234;6.568;2023-04-03T07:19:35;11.65;;;3.53;;
52618;SDS011;38513;53.234;6.568;2023-04-03T07:22:01;11.43;;;3.70;;
52618;SDS011;38513;53.234;6.568;2023-04-03T07:24:34;8.90;;;3.15;;
52618;SDS011;38513;53.234;6.568;2023-04-03T07:27:01;11.30;;;3.75;;
52618;SDS011;38513;53.234;6.568;2023-04-03T07:29:27;10.48;;;3.25;;
52618;SDS011;38513;53.234;6.568;2023-04-03T07:31:54;11.13;;;3.47;;
52618;SDS011;38513;53.234;6.568;2023-04-03T07:34:21;10.63;;;3.10;;
52618;SDS011;38513;53.234;6.568;2023-04-03T07:36:53;10.02;;;3.30;;
52618;SDS011;38513;53.234;6.568;2023-04-03T07:39:19;11.82;;;3.17;;
52618;SDS011;38513;53.234;6.568;2023-04-03T07:41:46;9.38;;;2.97;;
52618;SDS011;38513;53.234;6.568;2023-04-03T07:44:12;9.27;;;3.00;;
52618;SDS011;38513;53.234;6.568;2023-04-03T07:46:43;8.55;;;2.67;;
52618;SDS011;38513;53.234;6.568;2023-04-03T07:49:09;9.73;;;2.70;;
52618;SDS011;38513;53.234;6.568;2023-04-03T07:51:36;9.90;;;3.30;;
52618;SDS011;38513;53.234;6.568;2023-04-03T07:54:02;11.20;;;3.20;;
52618;SDS011;38513;53.234;6.568;2023-04-03T07:56:29;9.75;;;3.35;;
52618;SDS011;38513;53.234;6.568;2023-04-03T07:58:55;9.50;;;3.03;;
52618;SDS011;38513;53.234;6.568;2023-04-03T08:01:27;9.55;;;2.95;;
52618;SDS011;38513;53.234;6.568;2023-04-03T08:03:56;9.15;;;2.88;;
52618;SDS011;38513;53.234;6.568;2023-04-03T08:06:23;9.10;;;2.80;;
52618;SDS011;38513;53.234;6.568;2023-04-03T08:08:54;9.02;;;2.90;;
52618;SDS011;38513;53.234;6.568;2023-04-03T08:11:21;11.18;;;2.90;;
52618;SDS011;38513;53.234;6.568;2023-04-03T08:13:55;9.23;;;2.85;;
52618;SDS011;38513;53.234;6.568;2023-04-03T08:16:22;12.63;;;3.15;;
52618;SDS011;38513;53.234;6.568;2023-04-03T08:19:10;8.57;;;2.78;;
52618;SDS011;38513;53.234;6.568;2023-04-03T08:21:49;9.98;;;2.80;;
52618;SDS011;38513;53.234;6.568;2023-04-03T08:24:17;8.98;;;2.47;;
52618;SDS011;38513;53.234;6.568;2023-04-03T08:26:46;8.82;;;2.42;;
52618;SDS011;38513;53.234;6.568;2023-04-03T08:29:13;12.10;;;2.85;;
52618;SDS011;38513;53.234;6.568;2023-04-03T08:31:39;8.65;;;2.65;;
52618;SDS011;38513;53.234;6.568;2023-04-03T08:34:05;9.43;;;2.67;;
52618;SDS011;38513;53.234;6.568;2023-04-03T08:36:38;8.38;;;2.72;;
52618;SDS011;38513;53.234;6.568;2023-04-03T08:39:21;7.32;;;2.25;;
52618;SDS011;38513;53.234;6.568;2023-04-03T08:41:47;10.50;;;2.50;;
52618;SDS011;38513;53.234;6.568;2023-04-03T08:50:07;9.10;;;2.40;;
52618;SDS011;38513;53.234;6.568;2023-04-03T08:52:12;10.88;;;2.85;;
52618;SDS011;38513;53.234;6.568;2023-04-03T08:57:27;8.05;;;2.28;;
52618;SDS011;38513;53.234;6.568;2023-04-03T08:59:55;7.22;;;2.20;;
52618;SDS011;38513;53.234;6.568;2023-04-03T09:02:33;8.77;;;2.28;;
52618;SDS011;38513;53.234;6.568;2023-04-03T09:05:01;6.97;;;1.80;;
52618;SDS011;38513;53.234;6.568;2023-04-03T09:07:39;7.03;;;1.75;;
52618;SDS011;38513;53.234;6.568;2023-04-03T09:10:08;5.55;;;1.52;;
52618;SDS011;38513;53.234;6.568;2023-04-03T09:12:42;5.93;;;1.60;;
52618;SDS011;38513;53.234;6.568;2023-04-03T09:23:10;5.50;;;1.38;;
52618;SDS011;38513;53.234;6.568;2023-04-03T09:25:39;5.93;;;1.45;;
52618;SDS011;38513;53.234;6.568;2023-04-03T09:28:06;5.68;;;1.42;;
52618;SDS011;38513;53.234;6.568;2023-04-03T09:30:35;4.30;;;1.23;;
52618;SDS011;38513;53.234;6.568;2023-04-03T09:33:04;5.63;;;1.60;;
52618;SDS011;38513;53.234;6.568;2023-04-03T09:35:33;5.35;;;1.40;;
52618;SDS011;38513;53.234;6.568;2023-04-03T09:40:39;4.82;;;1.45;;
52618;SDS011;38513;53.234;6.568;2023-04-03T09:43:25;3.88;;;1.20;;
52618;SDS011;38513;53.234;6.568;2023-04-03T09:45:53;4.55;;;1.35;;
52618;SDS011;38513;53.234;6.568;2023-04-03T09:48:20;5.18;;;1.27;;
52618;SDS011;38513;53.234;6.568;2023-04-03T09:53:33;4.47;;;1.30;;
52618;SDS011;38513;53.234;6.568;2023-04-03T09:56:18;4.93;;;1.70;;
52618;SDS011;38513;53.234;6.568;2023-04-03T09:58:49;4.88;;;1.50;;
52618;SDS011;38513;53.234;6.568;2023-04-03T10:04:41;5.20;;;1.52;;
52618;SDS011;38513;53.234;6.568;2023-04-03T10:12:48;4.93;;;1.30;;
52618;SDS011;38513;53.234;6.568;2023-04-03T10:15:16;5.75;;;1.50;;
52618;SDS011;38513;53.234;6.568;2023-04-03T10:17:50;5.15;;;1.40;;
52618;SDS011;38513;53.234;6.568;2023-04-03T10:27:53;3.30;;;1.17;;
52618;SDS011;38513;53.234;6.568;2023-04-03T10:32:54;5.68;;;1.23;;
52618;SDS011;38513;53.234;6.568;2023-04-03T10:41:01;4.47;;;1.20;;
52618;SDS011;38513;53.234;6.568;2023-04-03T10:43:41;3.70;;;1.10;;
52618;SDS011;38513;53.234;6.568;2023-04-03T10:46:15;5.05;;;1.40;;
52618;SDS011;38513;53.234;6.568;2023-04-03T10:51:29;6.15;;;1.40;;
52618;SDS011;38513;53.234;6.568;2023-04-03T10:56:40;5.88;;;1.40;;
52618;SDS011;38513;53.234;6.568;2023-04-03T10:59:13;4.90;;;1.30;;
52618;SDS011;38513;53.234;6.568;2023-04-03T11:01:44;4.95;;;1.15;;
52618;SDS011;38513;53.234;6.568;2023-04-03T11:04:11;3.67;;;1.17;;
52618;SDS011;38513;53.234;6.568;2023-04-03T11:06:46;4.18;;;1.20;;
52618;SDS011;38513;53.234;6.568;2023-04-03T11:09:25;5.53;;;1.17;;
52618;SDS011;38513;53.234;6.568;2023-04-03T11:14:50;4.45;;;1.30;;
52618;SDS011;38513;53.234;6.568;2023-04-03T11:17:26;4.20;;;1.10;;
52618;SDS011;38513;53.234;6.568;2023-04-03T11:20:01;4.43;;;1.10;;
52618;SDS011;38513;53.234;6.568;2023-04-03T11:22:33;3.70;;;1.10;;
52618;SDS011;38513;53.234;6.568;2023-04-03T11:25:04;4.53;;;1.10;;
52618;SDS011;38513;53.234;6.568;2023-04-03T11:27:43;5.05;;;1.17;;
52618;SDS011;38513;53.234;6.568;2023-04-03T11:30:16;5.22;;;1.20;;
52618;SDS011;38513;53.234;6.568;2023-04-03T11:35:28;5.13;;;1.23;;
52618;SDS011;38513;53.234;6.568;2023-04-03T11:37:55;4.20;;;1.17;;
52618;SDS011;38513;53.234;6.568;2023-04-03T11:40:24;4.75;;;1.20;;
52618;SDS011;38513;53.234;6.568;2023-04-03T11:43:39;4.80;;;1.15;;
52618;SDS011;38513;53.234;6.568;2023-04-03T11:45:46;4.35;;;1.08;;
52618;SDS011;38513;53.234;6.568;2023-04-03T11:50:46;5.10;;;1.30;;
52618;SDS011;38513;53.234;6.568;2023-04-03T11:55:46;4.60;;;1.30;;
52618;SDS011;38513;53.234;6.568;2023-04-03T11:58:25;5.68;;;1.50;;
52618;SDS011;38513;53.234;6.568;2023-04-03T12:01:02;4.28;;;1.20;;
52618;SDS011;38513;53.234;6.568;2023-04-03T12:03:30;3.85;;;1.10;;
52618;SDS011;38513;53.234;6.568;2023-04-03T12:13:40;5.63;;;1.33;;
52618;SDS011;38513;53.234;6.568;2023-04-03T12:26:23;5.55;;;1.30;;
52618;SDS011;38513;53.234;6.568;2023-04-03T12:28:53;5.03;;;1.33;;
52618;SDS011;38513;53.234;6.568;2023-04-03T12:31:22;4.88;;;1.17;;
52618;SDS011;38513;53.234;6.568;2023-04-03T12:39:05;4.30;;;1.10;;
52618;SDS011;38513;53.234;6.568;2023-04-03T12:41:37;3.60;;;0.95;;
52618;SDS011;38513;53.234;6.568;2023-04-03T12:46:50;3.93;;;1.00;;
52618;SDS011;38513;53.234;6.568;2023-04-03T12:51:46;7.90;;;2.60;;
52618;SDS011;38513;53.234;6.568;2023-04-03T12:54:16;4.20;;;1.10;;
52618;SDS011;38513;53.234;6.568;2023-04-03T12:56:44;12.18;;;7.90;;
52618;SDS011;38513;53.234;6.568;2023-04-03T13:01:40;3.65;;;1.17;;
52618;SDS011;38513;53.234;6.568;2023-04-03T13:04:10;4.70;;;1.20;;
52618;SDS011;38513;53.234;6.568;2023-04-03T13:06:39;4.15;;;0.90;;
52618;SDS011;38513;53.234;6.568;2023-04-03T13:09:14;3.20;;;0.90;;
52618;SDS011;38513;53.234;6.568;2023-04-03T13:11:46;4.43;;;1.10;;
52618;SDS011;38513;53.234;6.568;2023-04-03T13:14:19;4.88;;;1.20;;
52618;SDS011;38513;53.234;6.568;2023-04-03T13:19:40;5.20;;;1.08;;
52618;SDS011;38513;53.234;6.568;2023-04-03T13:22:08;4.25;;;1.10;;
52618;SDS011;38513;53.234;6.568;2023-04-03T13:24:35;4.10;;;1.10;;
52618;SDS011;38513;53.234;6.568;2023-04-03T13:27:06;4.22;;;1.10;;
52618;SDS011;38513;53.234;6.568;2023-04-03T13:29:34;5.13;;;1.25;;
52618;SDS011;38513;53.234;6.568;2023-04-03T13:32:00;4.05;;;1.10;;
52618;SDS011;38513;53.234;6.568;2023-04-03T13:34:28;4.18;;;0.93;;
52618;SDS011;38513;53.234;6.568;2023-04-03T13:36:58;4.93;;;1.10;;
52618;SDS011;38513;53.234;6.568;2023-04-03T13:39:29;5.45;;;1.08;;
52618;SDS011;38513;53.234;6.568;2023-04-03T13:41:59;4.75;;;1.38;;
52618;SDS011;38513;53.234;6.568;2023-04-03T13:44:30;5.03;;;1.40;;
52618;SDS011;38513;53.234;6.568;2023-04-03T13:46:58;4.50;;;1.10;;
52618;SDS011;38513;53.234;6.568;2023-04-03T13:51:54;4.70;;;1.30;;
52618;SDS011;38513;53.234;6.568;2023-04-03T13:54:23;4.38;;;1.30;;
52618;SDS011;38513;53.234;6.568;2023-04-03T13:56:53;6.20;;;1.58;;
52618;SDS011;38513;53.234;6.568;2023-04-03T13:59:38;5.75;;;1.50;;
52618;SDS011;38513;53.234;6.568;2023-04-03T14:07:06;6.05;;;1.42;;
52618;SDS011;38513;53.234;6.568;2023-04-03T14:09:33;5.30;;;1.30;;
52618;SDS011;38513;53.234;6.568;2023-04-03T14:12:02;5.65;;;1.50;;
52618;SDS011;38513;53.234;6.568;2023-04-03T14:14:35;5.88;;;1.50;;
52618;SDS011;38513;53.234;6.568;2023-04-03T14:17:05;4.95;;;1.50;;
52618;SDS011;38513;53.234;6.568;2023-04-03T14:19:35;5.25;;;1.52;;
52618;SDS011;38513;53.234;6.568;2023-04-03T14:25:04;5.53;;;1.40;;
52618;SDS011;38513;53.234;6.568;2023-04-03T14:27:34;5.25;;;1.45;;
52618;SDS011;38513;53.234;6.568;2023-04-03T14:30:07;5.65;;;1.30;;
52618;SDS011;38513;53.234;6.568;2023-04-03T14:32:34;4.30;;;1.20;;
52618;SDS011;38513;53.234;6.568;2023-04-03T14:35:00;4.55;;;1.10;;
52618;SDS011;38513;53.234;6.568;2023-04-03T14:37:28;4.95;;;1.20;;
52618;SDS011;38513;53.234;6.568;2023-04-03T14:39:55;5.47;;;1.20;;
52618;SDS011;38513;53.234;6.568;2023-04-03T14:42:27;6.73;;;2.23;;
52618;SDS011;38513;53.234;6.568;2023-04-03T14:44:53;4.88;;;1.20;;
52618;SDS011;38513;53.234;6.568;2023-04-03T14:47:20;4.53;;;1.27;;
52618;SDS011;38513;53.234;6.568;2023-04-03T14:49:47;4.68;;;1.30;;
52618;SDS011;38513;53.234;6.568;2023-04-03T14:52:19;6.35;;;1.40;;
52618;SDS011;38513;53.234;6.568;2023-04-03T14:54:48;5.07;;;1.30;;
52618;SDS011;38513;53.234;6.568;2023-04-03T14:57:16;7.65;;;2.92;;
52618;SDS011;38513;53.234;6.568;2023-04-03T14:59:45;5.05;;;1.33;;
52618;SDS011;38513;53.234;6.568;2023-04-03T15:02:34;5.75;;;1.30;;
52618;SDS011;38513;53.234;6.568;2023-04-03T15:04:58;4.97;;;1.00;;
52618;SDS011;38513;53.234;6.568;2023-04-03T15:07:26;5.57;;;1.40;;
52618;SDS011;38513;53.234;6.568;2023-04-03T15:09:56;5.95;;;1.60;;
52618;SDS011;38513;53.234;6.568;2023-04-03T15:12:25;5.63;;;1.38;;
52618;SDS011;38513;53.234;6.568;2023-04-03T15:14:55;5.72;;;1.25;;
52618;SDS011;38513;53.234;6.568;2023-04-03T15:17:23;4.63;;;1.25;;
52618;SDS011;38513;53.234;6.568;2023-04-03T15:19:49;4.22;;;1.10;;
52618;SDS011;38513;53.234;6.568;2023-04-03T15:22:16;6.33;;;1.47;;
52618;SDS011;38513;53.234;6.568;2023-04-03T15:24:47;5.97;;;1.40;;
52618;SDS011;38513;53.234;6.568;2023-04-03T15:27:13;4.80;;;1.20;;
52618;SDS011;38513;53.234;6.568;2023-04-03T15:29:41;4.10;;;1.02;;
52618;SDS011;38513;53.234;6.568;2023-04-03T15:32:07;4.18;;;1.08;;
52618;SDS011;38513;53.234;6.568;2023-04-03T15:37:22;4.00;;;0.90;;
52618;SDS011;38513;53.234;6.568;2023-04-03T15:39:52;5.55;;;1.30;;
52618;SDS011;38513;53.234;6.568;2023-04-03T15:45:07;4.63;;;1.15;;
52618;SDS011;38513;53.234;6.568;2023-04-03T15:57:48;4.05;;;1.05;;
52618;SDS011;38513;53.234;6.568;2023-04-03T16:00:27;4.30;;;1.10;;
52618;SDS011;38513;53.234;6.568;2023-04-03T16:02:55;4.57;;;1.20;;
52618;SDS011;38513;53.234;6.568;2023-04-03T16:05:23;5.87;;;1.20;;
52618;SDS011;38513;53.234;6.568;2023-04-03T16:07:56;5.00;;;1.25;;
52618;SDS011;38513;53.234;6.568;2023-04-03T16:10:23;5.93;;;1.35;;
52618;SDS011;38513;53.234;6.568;2023-04-03T16:12:56;3.67;;;1.00;;
52618;SDS011;38513;53.234;6.568;2023-04-03T16:15:23;3.97;;;1.10;;
52618;SDS011;38513;53.234;6.568;2023-04-03T16:17:49;4.83;;;1.20;;
52618;SDS011;38513;53.234;6.568;2023-04-03T16:20:16;5.15;;;1.30;;
52618;SDS011;38513;53.234;6.568;2023-04-03T16:22:43;5.88;;;1.33;;
52618;SDS011;38513;53.234;6.568;2023-04-03T16:25:10;4.15;;;1.15;;
52618;SDS011;38513;53.234;6.568;2023-04-03T16:27:37;4.87;;;1.20;;
52618;SDS011;38513;53.234;6.568;2023-04-03T16:30:04;6.30;;;1.30;;
52618;SDS011;38513;53.234;6.568;2023-04-03T16:32:31;5.13;;;1.20;;
52618;SDS011;38513;53.234;6.568;2023-04-03T16:34:57;4.45;;;1.13;;
52618;SDS011;38513;53.234;6.568;2023-04-03T16:37:30;5.65;;;1.30;;
52618;SDS011;38513;53.234;6.568;2023-04-03T16:39:56;5.75;;;1.50;;
52618;SDS011;38513;53.234;6.568;2023-04-03T16:42:23;5.70;;;1.20;;
52618;SDS011;38513;53.234;6.568;2023-04-03T16:44:50;4.85;;;1.27;;
52618;SDS011;38513;53.234;6.568;2023-04-03T16:47:16;6.03;;;1.48;;
52618;SDS011;38513;53.234;6.568;2023-04-03T16:49:44;5.90;;;1.10;;
52618;SDS011;38513;53.234;6.568;2023-04-03T16:52:10;5.75;;;1.30;;
52618;SDS011;38513;53.234;6.568;2023-04-03T16:54:37;5.75;;;1.48;;
52618;SDS011;38513;53.234;6.568;2023-04-03T16:57:03;6.82;;;1.42;;
52618;SDS011;38513;53.234;6.568;2023-04-03T16:59:29;4.97;;;1.40;;
52618;SDS011;38513;53.234;6.568;2023-04-03T17:01:55;4.95;;;1.30;;
52618;SDS011;38513;53.234;6.568;2023-04-03T17:04:22;4.95;;;1.10;;
52618;SDS011;38513;53.234;6.568;2023-04-03T17:06:48;6.20;;;1.30;;